createdAt,value
2018-10-02T00:00:54.855Z,73.70
2018-10-02T00:03:26.545Z,73.90
2018-10-02T00:05:58.657Z,74.20
2018-10-02T00:08:30.375Z,74.10
2018-10-02T00:11:08.646Z,73.50
2018-10-02T00:13:45.556Z,73.80
2018-10-02T00:16:19.566Z,73.80
2018-10-02T00:18:52.155Z,74.30
2018-10-02T00:21:23.305Z,74.30
2018-10-02T00:23:55.016Z,74.30
2018-10-02T00:26:27.636Z,74.30
2018-10-02T00:28:59.817Z,74.70
2018-10-02T00:31:31.026Z,75.60
2018-10-02T00:34:05.577Z,75.30
2018-10-02T00:36:37.345Z,75.80
2018-10-02T00:39:09.576Z,76.20
2018-10-02T00:41:41.486Z,75.50
2018-10-02T00:44:13.696Z,74.90
2018-10-02T00:46:45.733Z,75.60
2018-10-02T00:49:17.692Z,76.40
2018-10-02T00:51:49.673Z,76.90
2018-10-02T00:54:22.823Z,76.40
2018-10-02T00:56:54.893Z,76.50
2018-10-02T00:59:26.772Z,76.20
2018-10-02T01:01:59.513Z,75.90
2018-10-02T01:04:31.063Z,76.00
2018-10-02T01:07:02.523Z,76.20
2018-10-02T01:09:34.103Z,76.00
2018-10-02T01:12:06.292Z,76.20
2018-10-02T01:14:38.235Z,76.00
2018-10-02T01:17:08.943Z,76.30
2018-10-02T01:19:40.923Z,76.10
2018-10-02T01:22:12.613Z,76.30
2018-10-02T01:24:44.833Z,76.40
2018-10-02T01:27:16.662Z,76.50
2018-10-02T01:29:48.843Z,76.10
2018-10-02T01:32:28.678Z,74.40
2018-10-02T01:35:00.523Z,74.50
2018-10-02T01:37:33.302Z,74.00
2018-10-02T01:40:05.063Z,74.20
2018-10-02T01:42:36.872Z,74.70
2018-10-02T01:45:07.844Z,75.20
2018-10-02T01:47:39.982Z,75.70
2018-10-02T01:50:10.763Z,76.50
2018-10-02T01:52:42.786Z,76.50
2018-10-02T01:55:16.029Z,75.40
2018-10-02T01:57:47.102Z,74.50
2018-10-02T02:00:20.137Z,73.90
2018-10-02T02:02:51.352Z,74.30
2018-10-02T02:05:27.734Z,74.30
2018-10-02T02:07:59.095Z,74.00
2018-10-02T02:10:32.073Z,74.30
2018-10-02T02:13:03.453Z,74.90
2018-10-02T02:15:35.673Z,74.30
2018-10-02T02:18:10.043Z,74.50
2018-10-02T02:20:40.973Z,74.90
2018-10-02T02:23:11.553Z,73.70
2018-10-02T02:25:44.663Z,73.60
2018-10-02T02:28:16.314Z,74.20
2018-10-02T02:30:48.186Z,74.30
2018-10-02T02:33:19.792Z,74.40
2018-10-02T02:35:51.102Z,72.00
2018-10-02T02:38:23.923Z,69.30
2018-10-02T02:40:55.373Z,70.90
2018-10-02T02:43:26.648Z,70.60
2018-10-02T02:45:57.903Z,70.90
2018-10-02T02:48:33.684Z,71.50
2018-10-02T02:51:09.723Z,71.10
2018-10-02T02:53:40.793Z,72.10
2018-10-02T02:56:12.262Z,72.40
2018-10-02T02:58:45.003Z,72.50
2018-10-02T03:01:16.693Z,72.90
2018-10-02T03:03:48.013Z,73.90
2018-10-02T03:06:23.941Z,73.90
2018-10-02T03:08:56.187Z,74.60
2018-10-02T03:11:27.342Z,74.80
2018-10-02T03:14:01.363Z,74.40
2018-10-02T03:16:33.962Z,74.90
2018-10-02T03:19:05.627Z,75.70
2018-10-02T03:21:37.103Z,75.80
2018-10-02T03:24:08.823Z,76.40
2018-10-02T03:26:39.383Z,76.30
2018-10-02T03:29:11.173Z,76.40
2018-10-02T03:31:42.594Z,76.30
2018-10-02T03:34:15.153Z,76.20
2018-10-02T03:36:47.013Z,75.30
2018-10-02T03:39:17.913Z,75.00
2018-10-02T03:41:48.695Z,75.00
2018-10-02T03:44:19.333Z,74.70
2018-10-02T03:46:50.993Z,75.70
2018-10-02T03:49:22.853Z,74.80
2018-10-02T03:51:56.922Z,74.40
2018-10-02T03:54:28.813Z,74.50
2018-10-02T03:57:00.994Z,74.20
2018-10-02T03:59:34.862Z,74.40
2018-10-02T04:02:06.885Z,75.40
2018-10-02T04:04:38.482Z,75.70
2018-10-02T04:07:09.983Z,75.60
2018-10-02T04:09:41.894Z,75.50
2018-10-02T04:12:12.613Z,75.20
2018-10-02T04:14:45.044Z,75.40
2018-10-02T04:17:15.652Z,75.50
2018-10-02T04:19:47.953Z,76.20
2018-10-02T04:22:18.953Z,76.00
2018-10-02T04:24:50.004Z,75.30
2018-10-02T04:27:22.132Z,76.00
2018-10-02T04:29:54.462Z,76.80
2018-10-02T04:32:30.213Z,76.90
2018-10-02T04:35:01.346Z,77.00
2018-10-02T04:37:33.524Z,77.00
2018-10-02T04:40:05.394Z,76.80
2018-10-02T04:42:37.572Z,76.70
2018-10-02T04:45:08.413Z,76.60
2018-10-02T04:47:40.893Z,76.50
2018-10-02T04:50:12.313Z,75.50
2018-10-02T04:52:44.673Z,75.40
2018-10-02T04:55:15.195Z,74.70
2018-10-02T04:57:47.243Z,75.10
2018-10-02T05:00:18.873Z,75.70
2018-10-02T05:02:50.533Z,74.80
2018-10-02T05:05:22.123Z,73.50
2018-10-02T05:07:54.473Z,73.20
2018-10-02T05:10:26.673Z,72.60
2018-10-02T05:12:57.883Z,73.50
2018-10-02T05:15:28.832Z,73.70
2018-10-02T05:17:59.873Z,74.50
2018-10-02T05:20:31.860Z,73.30
2018-10-02T05:23:03.603Z,73.00
2018-10-02T05:25:35.625Z,72.70
2018-10-02T05:28:07.933Z,72.20
2018-10-02T05:30:39.106Z,72.90
2018-10-02T05:33:10.063Z,74.80
2018-10-02T05:35:41.413Z,74.40
2018-10-02T05:38:13.055Z,74.90
2018-10-02T05:40:44.733Z,74.90
2018-10-02T05:43:17.163Z,74.60
2018-10-02T05:45:48.524Z,73.80
2018-10-02T05:48:19.952Z,74.60
2018-10-02T05:50:50.483Z,74.70
2018-10-02T05:53:21.362Z,75.00
2018-10-02T05:55:52.623Z,74.80
2018-10-02T05:58:24.495Z,74.70
2018-10-02T06:00:55.776Z,74.70
2018-10-02T06:03:26.993Z,74.70
2018-10-02T06:05:58.093Z,74.70
2018-10-02T06:08:29.333Z,74.20
2018-10-02T06:11:01.607Z,74.70
2018-10-02T06:13:32.024Z,75.00
2018-10-02T06:16:03.157Z,74.00
2018-10-02T06:18:35.374Z,73.60
2018-10-02T06:21:12.103Z,74.40
2018-10-02T06:23:46.013Z,75.50
2018-10-02T06:26:17.105Z,76.10
2018-10-02T06:28:47.950Z,75.40
2018-10-02T06:31:20.070Z,74.20
2018-10-02T06:33:52.202Z,74.70
2018-10-02T06:36:23.543Z,75.50
2018-10-02T06:38:55.500Z,76.20
2018-10-02T06:41:27.306Z,76.60
2018-10-02T06:43:59.853Z,76.50
2018-10-02T06:46:31.513Z,76.00
2018-10-02T06:49:03.463Z,75.70
2018-10-02T06:51:35.564Z,74.80
2018-10-02T06:54:07.143Z,74.10
2018-10-02T06:56:39.840Z,74.40
2018-10-02T06:59:11.714Z,74.70
2018-10-02T07:01:42.082Z,75.20
2018-10-02T07:04:13.343Z,75.50
2018-10-02T07:06:44.806Z,76.30
2018-10-02T07:09:15.885Z,75.20
2018-10-02T07:11:47.387Z,74.70
2018-10-02T07:14:18.602Z,73.90
2018-10-02T07:16:49.943Z,74.70
2018-10-02T07:19:21.183Z,76.10
2018-10-02T07:21:52.624Z,75.80
2018-10-02T07:24:24.553Z,75.10
2018-10-02T07:27:24.764Z,72.50
2018-10-02T07:29:55.405Z,72.50
2018-10-02T07:32:49.126Z,73.80
2018-10-02T07:35:19.995Z,74.20
2018-10-02T07:38:08.623Z,74.50
2018-10-02T07:40:40.115Z,75.60
2018-10-02T07:43:11.244Z,75.80
2018-10-02T07:45:41.895Z,75.10
2018-10-02T07:48:22.853Z,74.50
2018-10-02T07:50:55.236Z,74.40
2018-10-02T07:53:25.887Z,73.30
2018-10-02T07:55:56.873Z,75.70
2018-10-02T07:58:28.243Z,73.30
2018-10-02T08:01:00.855Z,73.50
2018-10-02T08:03:32.105Z,74.40
2018-10-02T08:06:03.561Z,74.00
2018-10-02T08:08:34.676Z,73.60
2018-10-02T08:11:06.814Z,74.30
2018-10-02T08:13:39.059Z,74.00
2018-10-02T08:16:10.343Z,73.90
2018-10-02T08:18:40.964Z,73.70
2018-10-02T08:21:12.685Z,73.10
2018-10-02T08:23:44.960Z,72.80
2018-10-02T08:26:16.023Z,72.80
2018-10-02T08:28:47.714Z,74.50
2018-10-02T08:31:19.894Z,74.70
2018-10-02T08:33:51.183Z,73.80
2018-10-02T08:36:22.738Z,74.10
2018-10-02T08:38:54.815Z,73.40
2018-10-02T08:41:25.993Z,73.80
2018-10-02T08:43:58.431Z,71.70
2018-10-02T08:46:30.315Z,71.30
2018-10-02T08:49:01.593Z,70.40
2018-10-02T08:51:33.734Z,71.60
2018-10-02T08:54:07.479Z,72.00
2018-10-02T08:56:39.243Z,70.80
2018-10-02T08:59:10.494Z,71.50
2018-10-02T09:01:41.613Z,72.40
2018-10-02T09:04:12.794Z,72.40
2018-10-02T09:06:45.424Z,73.60
2018-10-02T09:09:17.864Z,72.30
2018-10-02T09:11:48.824Z,69.20
2018-10-02T09:14:19.963Z,69.20
2018-10-02T09:16:51.454Z,71.00
2018-10-02T09:19:23.104Z,68.90
2018-10-02T09:21:54.803Z,68.00
2018-10-02T09:24:25.984Z,67.10
2018-10-02T09:26:57.363Z,66.70
2018-10-02T09:29:28.673Z,66.90
2018-10-02T09:33:04.613Z,68.00
2018-10-02T09:35:41.093Z,67.40
2018-10-02T09:38:17.404Z,65.70
2018-10-02T09:40:53.603Z,66.30
2018-10-02T09:43:29.608Z,66.80
2018-10-02T09:46:01.276Z,66.40
2018-10-02T09:48:32.453Z,67.80
2018-10-02T09:51:06.691Z,67.10
2018-10-02T09:53:37.923Z,67.90
2018-10-02T09:56:09.214Z,67.70
2018-10-02T09:58:40.744Z,67.80
2018-10-02T10:01:17.602Z,66.90
2018-10-02T10:03:48.663Z,66.90
2018-10-02T10:06:19.743Z,66.40
2018-10-02T10:08:52.224Z,67.80
2018-10-02T10:11:23.393Z,68.10
2018-10-02T10:13:54.636Z,67.40
2018-10-02T10:16:26.042Z,68.70
2018-10-02T10:18:58.073Z,69.50
2018-10-02T10:21:30.673Z,68.10
2018-10-02T10:24:02.313Z,68.40
2018-10-02T10:26:33.416Z,68.50
2018-10-02T10:29:05.183Z,68.40
2018-10-02T10:31:36.524Z,65.80
2018-10-02T10:34:07.813Z,65.60
2018-10-02T10:36:39.219Z,66.30
2018-10-02T10:39:11.683Z,65.30
2018-10-02T10:41:44.583Z,64.10
2018-10-02T10:44:17.102Z,65.00
2018-10-02T10:46:48.236Z,65.30
2018-10-02T10:49:18.893Z,65.50
2018-10-02T10:51:53.613Z,65.20
2018-10-02T10:54:25.863Z,66.00
2018-10-02T10:56:58.208Z,66.70
2018-10-02T10:59:29.013Z,67.20
2018-10-02T11:02:01.033Z,66.90
2018-10-02T11:04:35.216Z,67.40
2018-10-02T11:07:06.621Z,66.10
2018-10-02T11:09:37.972Z,65.80
2018-10-02T11:12:09.433Z,64.50
2018-10-02T11:14:41.252Z,65.90
2018-10-02T11:17:12.863Z,65.90
2018-10-02T11:19:44.303Z,64.50
2018-10-02T11:22:15.073Z,63.60
2018-10-02T11:24:47.204Z,63.90
2018-10-02T11:27:18.654Z,64.30
2018-10-02T11:29:49.924Z,63.30
2018-10-02T11:32:23.853Z,65.40
2018-10-02T11:34:55.375Z,63.90
2018-10-02T11:37:26.985Z,63.10
2018-10-02T11:39:58.784Z,63.00
2018-10-02T11:42:30.183Z,63.00
2018-10-02T11:45:02.846Z,63.60
2018-10-02T11:47:34.534Z,63.50
2018-10-02T11:50:07.534Z,63.70
2018-10-02T11:52:38.726Z,64.10
2018-10-02T11:55:09.652Z,65.00
2018-10-02T11:57:41.642Z,64.40
2018-10-02T12:00:13.325Z,63.70
2018-10-02T12:02:45.953Z,63.50
2018-10-02T12:05:17.460Z,61.50
2018-10-02T12:07:48.914Z,63.50
2018-10-02T12:10:20.593Z,63.10
2018-10-02T12:12:51.920Z,61.40
2018-10-02T12:15:23.636Z,59.30
2018-10-02T12:17:54.359Z,57.70
2018-10-02T12:20:25.741Z,58.30
2018-10-02T12:22:58.249Z,56.70
2018-10-02T12:25:29.760Z,57.80
2018-10-02T12:28:01.461Z,59.20
2018-10-02T12:30:33.270Z,57.80
2018-10-02T12:33:04.830Z,57.70
2018-10-02T12:35:37.000Z,55.30
2018-10-02T12:38:08.260Z,56.80
2018-10-02T12:40:39.663Z,55.40
2018-10-02T12:43:11.710Z,55.30
2018-10-02T12:45:43.870Z,56.30
2018-10-02T12:48:15.580Z,54.80
2018-10-02T12:50:46.401Z,54.20
2018-10-02T12:53:17.940Z,53.90
2018-10-02T12:55:49.693Z,54.70
2018-10-02T12:58:21.300Z,52.40
2018-10-02T13:00:52.900Z,49.70
2018-10-02T13:03:24.800Z,51.60
2018-10-02T13:05:58.060Z,50.10
2018-10-02T13:08:29.590Z,48.60
2018-10-02T13:11:00.780Z,48.80
2018-10-02T13:13:31.270Z,48.20
2018-10-02T13:16:03.700Z,50.40
2018-10-02T13:18:36.160Z,51.70
2018-10-02T13:21:07.200Z,50.40
2018-10-02T13:23:39.019Z,50.90
2018-10-02T13:26:10.189Z,50.80
2018-10-02T13:28:42.011Z,50.50
2018-10-02T13:31:14.570Z,49.80
2018-10-02T13:33:46.081Z,50.30
2018-10-02T13:36:17.210Z,47.70
2018-10-02T13:38:48.520Z,48.10
2018-10-02T13:41:21.089Z,48.40
2018-10-02T13:43:53.140Z,49.40
2018-10-02T13:46:24.520Z,50.10
2018-10-02T13:48:56.160Z,49.80
2018-10-02T13:51:28.619Z,47.80
2018-10-02T13:54:00.069Z,48.00
2018-10-02T13:56:31.530Z,48.40
2018-10-02T13:59:03.030Z,50.60
2018-10-02T14:01:35.331Z,50.40
2018-10-02T14:04:07.130Z,50.30
2018-10-02T14:06:38.559Z,49.00
2018-10-02T14:09:09.547Z,49.90
2018-10-02T14:11:40.917Z,49.90
2018-10-02T14:14:12.578Z,50.10
2018-10-02T14:16:43.758Z,50.80
2018-10-02T14:19:16.438Z,50.00
2018-10-02T14:21:47.768Z,50.10
2018-10-02T14:24:19.771Z,50.40
2018-10-02T14:26:50.780Z,51.10
2018-10-02T14:29:22.479Z,51.00
2018-10-02T14:31:54.848Z,50.80
2018-10-02T14:34:26.608Z,50.20
2018-10-02T14:36:58.518Z,48.60
2018-10-02T14:39:29.797Z,49.10
2018-10-02T14:42:01.178Z,48.70
2018-10-02T14:44:32.908Z,49.60
2018-10-02T14:47:03.988Z,49.00
2018-10-02T14:49:35.771Z,49.50
2018-10-02T14:52:07.178Z,50.20
2018-10-02T14:54:39.308Z,50.50
2018-10-02T14:57:10.380Z,50.30
2018-10-02T14:59:42.158Z,51.00
2018-10-02T15:02:15.399Z,50.70
2018-10-02T15:04:46.000Z,51.40
2018-10-02T15:07:18.768Z,50.80
2018-10-02T15:09:51.328Z,50.40
2018-10-02T15:12:22.608Z,50.10
2018-10-02T15:14:55.058Z,51.00
2018-10-02T15:17:27.327Z,51.30
2018-10-02T15:20:00.369Z,51.30
2018-10-02T15:22:33.078Z,50.80
2018-10-02T15:25:04.937Z,51.30
2018-10-02T15:27:35.478Z,52.40
2018-10-02T15:30:07.220Z,52.00
2018-10-02T15:32:38.470Z,51.40
2018-10-02T15:35:10.289Z,50.80
2018-10-02T15:37:42.453Z,51.10
2018-10-02T15:40:14.009Z,53.10
2018-10-02T15:42:47.187Z,52.20
2018-10-02T15:45:18.618Z,52.10
2018-10-02T15:47:50.092Z,52.50
2018-10-02T15:50:21.384Z,52.80
2018-10-02T15:52:52.545Z,53.00
2018-10-02T15:55:24.137Z,52.80
2018-10-02T15:57:54.655Z,53.30
2018-10-02T16:00:26.268Z,53.70
2018-10-02T16:02:57.389Z,54.30
2018-10-02T16:05:28.098Z,56.00
2018-10-02T16:07:59.248Z,55.90
2018-10-02T16:10:30.699Z,56.20
2018-10-02T16:13:01.899Z,56.20
2018-10-02T16:15:33.439Z,56.90
2018-10-02T16:18:04.901Z,56.80
2018-10-02T16:20:36.500Z,57.00
2018-10-02T16:23:07.911Z,57.60
2018-10-02T16:25:39.579Z,58.10
2018-10-02T16:28:10.661Z,58.70
2018-10-02T16:30:41.218Z,61.80
2018-10-02T16:33:11.488Z,61.20
2018-10-02T16:35:42.307Z,61.80
2018-10-02T16:38:14.189Z,62.00
2018-10-02T16:40:45.620Z,63.60
2018-10-02T16:43:16.639Z,63.70
2018-10-02T16:45:48.040Z,64.90
2018-10-02T16:48:18.787Z,65.80
2018-10-02T16:50:50.272Z,65.50
2018-10-02T16:53:21.157Z,65.40
2018-10-02T16:55:51.598Z,65.70
2018-10-02T16:58:22.368Z,65.60
2018-10-02T17:00:54.407Z,65.50
2018-10-02T17:03:25.278Z,66.30
2018-10-02T17:05:57.151Z,66.10
2018-10-02T17:08:27.638Z,65.10
2018-10-02T17:10:59.158Z,64.70
2018-10-02T17:13:30.157Z,64.30
2018-10-02T17:16:01.089Z,63.90
2018-10-02T17:18:32.957Z,64.90
2018-10-02T17:21:04.277Z,66.90
2018-10-02T17:23:35.039Z,65.80
2018-10-02T17:26:06.588Z,65.60
2018-10-02T17:28:38.199Z,66.90
2018-10-02T17:31:08.547Z,67.70
2018-10-02T17:33:39.597Z,68.80
2018-10-02T17:36:10.268Z,68.30
2018-10-02T17:38:44.128Z,67.10
2018-10-02T17:41:15.807Z,67.10
2018-10-02T17:43:47.078Z,66.90
2018-10-02T17:46:17.347Z,67.60
2018-10-02T17:48:56.803Z,67.90
2018-10-02T17:51:27.684Z,67.60
2018-10-02T17:53:58.917Z,67.20
2018-10-02T17:56:29.758Z,67.40
2018-10-02T17:59:00.738Z,67.60
2018-10-02T18:01:32.014Z,68.20
2018-10-02T18:04:04.677Z,69.00
2018-10-02T18:06:35.948Z,68.80
2018-10-02T18:09:07.598Z,68.20
2018-10-02T18:11:38.964Z,68.10
2018-10-02T18:14:09.968Z,67.80
2018-10-02T18:16:41.958Z,68.20
2018-10-02T18:19:13.172Z,69.10
2018-10-02T18:21:44.388Z,69.50
2018-10-02T18:24:15.708Z,69.80
2018-10-02T18:26:47.197Z,70.20
2018-10-02T18:29:17.159Z,70.00
2018-10-02T18:31:47.849Z,70.40
2018-10-02T18:34:18.418Z,70.20
2018-10-02T18:36:50.318Z,70.00
2018-10-02T18:39:22.248Z,70.30
2018-10-02T18:41:53.508Z,70.30
2018-10-02T18:44:24.528Z,70.30
2018-10-02T18:46:56.048Z,70.80
2018-10-02T18:49:28.238Z,70.40
2018-10-02T18:51:59.758Z,70.80
2018-10-02T18:54:31.160Z,71.20
2018-10-02T18:57:02.556Z,70.00
2018-10-02T18:59:34.229Z,69.70
2018-10-02T19:02:05.845Z,70.40
2018-10-02T19:04:38.018Z,70.10
2018-10-02T19:07:10.148Z,70.60
2018-10-02T19:09:41.539Z,69.80
2018-10-02T19:12:16.148Z,70.70
2018-10-02T19:14:48.928Z,70.00
2018-10-02T19:17:20.908Z,70.40
2018-10-02T19:19:57.208Z,70.00
2018-10-02T19:22:28.728Z,70.20
2018-10-02T19:25:04.724Z,69.60
2018-10-02T19:27:36.508Z,70.00
2018-10-02T19:30:13.067Z,70.10
2018-10-02T19:32:44.478Z,70.10
2018-10-02T19:35:16.068Z,70.20
2018-10-02T19:37:51.620Z,70.00
2018-10-02T19:40:24.288Z,69.80
2018-10-02T19:42:56.059Z,69.40
2018-10-02T19:45:33.468Z,69.40
2018-10-02T19:48:03.968Z,69.00
2018-10-02T19:50:34.818Z,69.40
2018-10-02T19:53:06.241Z,69.80
2018-10-02T19:55:38.788Z,70.20
2018-10-02T19:58:09.651Z,70.10
2018-10-02T20:00:43.678Z,70.20
2018-10-02T20:03:14.158Z,69.50
2018-10-02T20:05:45.448Z,69.90
2018-10-02T20:08:17.309Z,69.50
2018-10-02T20:10:51.077Z,69.60
2018-10-02T20:13:34.621Z,70.10
2018-10-02T20:16:10.817Z,69.90
2018-10-02T20:18:49.798Z,69.80
2018-10-02T20:21:27.735Z,69.60
2018-10-02T20:24:02.632Z,70.00
2018-10-02T20:26:42.823Z,70.10
2018-10-02T20:29:20.476Z,70.10
2018-10-02T20:31:57.403Z,70.50
2018-10-02T20:34:30.208Z,70.30
2018-10-02T20:37:11.298Z,70.70
2018-10-02T20:39:44.827Z,70.60
2018-10-02T20:42:20.088Z,70.80
2018-10-02T20:44:55.229Z,70.30
2018-10-02T20:47:34.467Z,71.20
2018-10-02T20:50:10.279Z,70.50
2018-10-02T20:52:46.328Z,70.80
2018-10-02T20:55:24.808Z,70.90
2018-10-02T20:57:58.328Z,71.00
2018-10-02T21:00:40.429Z,71.50
2018-10-02T21:03:11.738Z,71.00
2018-10-02T21:05:50.057Z,70.20
2018-10-02T21:08:32.508Z,70.80
2018-10-02T21:11:09.888Z,70.60
2018-10-02T21:13:55.503Z,70.60
2018-10-02T21:16:33.889Z,71.00
2018-10-02T21:19:14.988Z,71.80
2018-10-02T21:21:57.698Z,70.20
2018-10-02T21:24:49.528Z,68.70
2018-10-02T21:27:31.528Z,68.60
2018-10-02T21:30:09.332Z,67.90
2018-10-02T21:32:56.687Z,67.70
2018-10-02T21:35:40.138Z,66.90
2018-10-02T21:38:22.937Z,67.40
2018-10-02T21:41:01.621Z,67.20
2018-10-02T21:43:33.358Z,67.50
2018-10-02T21:46:13.689Z,67.30
2018-10-02T21:48:53.559Z,68.30
2018-10-02T21:51:29.828Z,68.70
2018-10-02T21:54:00.868Z,69.10
2018-10-02T21:56:32.438Z,69.30
2018-10-02T21:59:03.628Z,68.90
2018-10-02T22:01:34.498Z,69.30
2018-10-02T22:04:05.779Z,69.40
2018-10-02T22:06:41.688Z,69.60
2018-10-02T22:09:15.858Z,69.10
2018-10-02T22:11:56.402Z,69.00
2018-10-02T22:14:27.849Z,69.40
2018-10-02T22:16:58.470Z,69.60
2018-10-02T22:19:29.614Z,69.60
2018-10-02T22:22:00.680Z,70.10
2018-10-02T22:24:33.549Z,69.50
2018-10-02T22:27:05.600Z,69.50
2018-10-02T22:29:37.101Z,69.70
2018-10-02T22:32:07.878Z,69.60
2018-10-02T22:34:40.829Z,69.80
2018-10-02T22:37:11.650Z,70.00
2018-10-02T22:39:44.189Z,70.50
2018-10-02T22:42:15.159Z,70.80
2018-10-02T22:44:45.699Z,71.20
2018-10-02T22:47:19.730Z,70.90
2018-10-02T22:49:55.578Z,71.50
2018-10-02T22:52:26.120Z,71.80
2018-10-02T22:54:58.288Z,71.70
2018-10-02T22:57:28.999Z,71.80
2018-10-02T22:59:59.621Z,71.90
2018-10-02T23:02:30.249Z,71.80
2018-10-02T23:05:01.430Z,71.90
2018-10-02T23:07:33.790Z,72.20
2018-10-02T23:10:13.612Z,72.90
2018-10-02T23:12:45.240Z,72.80
2018-10-02T23:15:24.827Z,73.20
2018-10-02T23:18:04.551Z,73.30
2018-10-02T23:20:35.523Z,73.20
2018-10-02T23:23:08.491Z,73.40
2018-10-02T23:25:48.457Z,73.90
2018-10-02T23:28:20.248Z,74.20
2018-10-02T23:30:52.228Z,74.10
2018-10-02T23:33:23.688Z,74.10
2018-10-02T23:36:00.181Z,74.10
2018-10-02T23:38:31.988Z,73.90
2018-10-02T23:41:03.979Z,73.70
2018-10-02T23:43:42.717Z,73.90
2018-10-02T23:46:14.777Z,74.50
2018-10-02T23:48:46.368Z,74.30
2018-10-02T23:51:18.608Z,74.30
2018-10-02T23:53:51.499Z,74.10
2018-10-02T23:56:23.759Z,74.00
2018-10-02T23:58:55.127Z,74.20
